Aérodrome :
LOGIN :

S'inscrire | Disclaimer

   EN    FR    IT 

 










Légende :    VFR   VFR Marginal   IFR   IFR Intensif   IFR Très Intensif
Visi : 
Plafond : 
>= 8 km
>= 3000ft
5 à 8 km
1000 à 3000 ft
1500m à 5 km
500 à 1000 ft
800 à 1500m
200 à 500 ft
< 800m
< 200 ft
Symboles :   Orages  Brouillard  Fortes neiges  Fortes précipitations  Vent > 20 kt
SIGMETs :   Divers  Orages  Givrage  Turbulence  Onde Orograph.  Cendres Volcan.






- Altitude de l'aérodrome : 1325 ft
- Code IATA : EBU


LFMH - St-Etienne Boutheon

DERNIER METAR :
  • 261530Z AUTO 34003KT 290V050 9999 FEW028/// BKN074/// BKN084/// ///CB 18/13 Q1018

METARs EXPIRÉS :
  • 261500Z AUTO 35005KT 320V020 9999 -RA FEW038/// SCT046/// BKN056/// ///CB 18/14 Q1018
  • 261430Z AUTO 25004KT 210V290 9999 -RA FEW034/// BKN056/// BKN072/// ///CB 19/14 Q1018
  • 261400Z AUTO 34006KT 300V010 9999 -RA FEW036/// BKN058/// BKN074/// ///CB 20/14 Q1018
  • 261330Z AUTO 34009KT 9999 FEW050/// BKN062/// BKN072/// ///CB 20/13 Q1018
  • 261300Z AUTO 36008KT 320V020 9999 ///CB 21/14 Q1018
  • 261230Z AUTO 35007KT 320V020 9999 NSC 21/14 Q1018
  • 261200Z AUTO 36006KT CAVOK 21/14 Q1018
  • 261130Z AUTO VRB02KT CAVOK 22/14 Q1018
  • 261100Z AUTO VRB03KT 9999 //////TCU 22/12 Q1018
  • 261030Z AUTO 19003KT 160V220 CAVOK 22/11 Q1018

Prévision TAF périmée.
ATIS : +33 4 77 36 17 51



MET'MAP, la Météo Aéronautique d'un coup d'oeil ! - Copyright ORBIFLY Décembre 2007 - Disclaimer

ORBIFLY MET'MAP TEAM :

Programmation & Développement : Alexandra Zaïnal
Sur une idée originale de : Baudouin d'Aumeries
Soutien technique & logistique : Manuel Goepfert
Assistance : Marc-Olivier Méhu




SOURCES & CREDITS :

   NOAA